Time;durP1;ratioP1;P1;durP2;ratioP2;P2;SDS_P1;SDS_P2;PMS_P1;PMS_P2;Temp;Humidity;BMP_temperature;BMP_pressure;BME280_temperature;BME280_humidity;BME280_pressure;Samples;Min_cycle;Max_cycle;Signal;HPM_P1;HPM_P2
2021/05/16 00:00:09;;;;;;;0.90;0.75;;;;;;;9.03;75.74;95345.09;5011615;28;20046;-73
2021/05/16 00:02:35;;;;;;;1.08;0.70;;;;;;;9.03;76.23;95356.78;5010918;28;20038;-72
2021/05/16 00:05:01;;;;;;;0.85;0.50;;;;;;;9.03;75.78;95355.97;5011925;28;20049;-73
2021/05/16 00:07:27;;;;;;;3.25;0.60;;;;;;;8.98;76.06;95362.41;5010401;28;20092;-72
2021/05/16 00:09:53;;;;;;;4.22;0.88;;;;;;;8.94;76.44;95358.75;5011547;28;20049;-72
2021/05/16 00:12:20;;;;;;;1.33;0.68;;;;;;;8.89;76.74;95357.03;5010818;28;20049;-72
2021/05/16 00:14:48;;;;;;;1.13;0.77;;;;;;;8.87;76.69;95358.47;5011239;28;20052;-72
2021/05/16 00:17:16;;;;;;;1.58;0.60;;;;;;;8.87;76.44;95358.47;5011009;28;20050;-72
2021/05/16 00:19:42;;;;;;;2.58;0.90;;;;;;;8.84;76.64;95365.38;5010937;28;20077;-72
2021/05/16 00:22:08;;;;;;;0.65;0.40;;;;;;;8.84;76.50;95370.81;5011117;28;20096;-72
2021/05/16 00:24:37;;;;;;;0.65;0.60;;;;;;;8.81;76.74;95366.03;5010841;28;20096;-72
2021/05/16 00:27:03;;;;;;;1.00;0.63;;;;;;;8.82;76.70;95362.22;5011291;28;20620;-72
2021/05/16 00:29:30;;;;;;;0.88;0.65;;;;;;;8.82;77.14;95362.22;5010454;28;20452;-72
2021/05/16 00:31:56;;;;;;;2.65;1.00;;;;;;;8.85;76.79;95366.97;5011398;28;20042;-71
2021/05/16 00:34:22;;;;;;;0.80;0.47;;;;;;;8.88;76.80;95373.66;5010617;28;20046;-72
2021/05/16 00:36:49;;;;;;;1.27;0.90;;;;;;;8.90;76.93;95376.84;5010637;28;20107;-72
2021/05/16 00:39:15;;;;;;;1.27;0.68;;;;;;;8.88;76.60;95370.94;5010724;28;20445;-72
2021/05/16 00:41:41;;;;;;;0.82;0.60;;;;;;;8.91;76.72;95377.63;5010982;28;20080;-72
2021/05/16 00:44:08;;;;;;;1.58;0.60;;;;;;;8.85;76.22;95377.81;5010739;28;20088;-71
2021/05/16 00:46:35;;;;;;;1.23;0.82;;;;;;;8.85;76.60;95383.25;5010489;28;20045;-71
2021/05/16 00:49:01;;;;;;;3.05;0.80;;;;;;;8.84;76.62;95384.38;5011546;28;20049;-72
2021/05/16 00:51:27;;;;;;;2.45;0.90;;;;;;;8.77;76.69;95386.84;5014657;28;20046;-71
2021/05/16 00:53:54;;;;;;;0.80;0.70;;;;;;;8.75;77.10;95382.84;5015381;28;20038;-72
2021/05/16 00:56:20;;;;;;;3.83;0.88;;;;;;;8.79;77.29;95392.72;5014093;28;20046;-72
2021/05/16 00:58:46;;;;;;;1.02;0.80;;;;;;;8.76;76.97;95385.22;5015131;28;20096;-72
2021/05/16 01:01:14;;;;;;;1.42;0.88;;;;;;;8.70;76.73;95389.25;5014195;28;20057;-72
2021/05/16 01:03:41;;;;;;;1.38;0.80;;;;;;;8.66;76.61;95390.25;5014715;28;20509;-72
2021/05/16 01:06:07;;;;;;;1.13;0.65;;;;;;;8.58;77.15;95379.13;5014407;28;20046;-72
2021/05/16 01:08:33;;;;;;;4.20;1.48;;;;;;;8.61;77.21;95378.47;5014287;28;20053;-72
2021/05/16 01:11:00;;;;;;;0.68;0.60;;;;;;;8.62;77.01;95380.06;5015123;28;20049;-72
2021/05/16 01:13:27;;;;;;;1.73;0.90;;;;;;;8.65;76.45;95377.81;5013770;28;20515;-72
2021/05/16 01:15:53;;;;;;;2.20;0.88;;;;;;;8.65;76.00;95372.38;5015110;28;20045;-72
2021/05/16 01:18:20;;;;;;;2.95;1.10;;;;;;;8.63;75.94;95378.94;5013577;28;20045;-72
2021/05/16 01:20:50;;;;;;;1.45;0.90;;;;;;;8.68;76.04;95382.59;5015023;28;20046;-72
2021/05/16 01:23:20;;;;;;;1.00;0.70;;;;;;;8.69;75.65;95389.59;5013530;28;20461;-73
2021/05/16 01:25:48;;;;;;;3.20;1.00;;;;;;;8.66;75.68;95388.31;5014877;28;20814;-72
2021/05/16 01:28:16;;;;;;;1.58;0.88;;;;;;;8.58;75.69;95389.97;5013892;28;20046;-72
2021/05/16 01:30:43;;;;;;;2.60;1.05;;;;;;;8.59;75.91;95385.34;5014252;28;20410;-72
2021/05/16 01:33:13;;;;;;;1.58;0.80;;;;;;;8.60;75.61;95395.06;5014060;28;20049;-72
2021/05/16 01:35:40;;;;;;;1.77;1.00;;;;;;;8.62;75.45;95390.91;5013771;28;20042;-72
2021/05/16 01:38:07;;;;;;;0.75;0.57;;;;;;;8.66;75.52;95392.97;5013901;28;20436;-72
2021/05/16 01:40:35;;;;;;;0.77;0.75;;;;;;;8.60;74.92;95393.16;5013751;28;20042;-72
2021/05/16 01:43:01;;;;;;;0.93;0.80;;;;;;;8.54;75.09;95389.03;5014477;28;20046;-72
2021/05/16 01:45:28;;;;;;;1.40;0.60;;;;;;;8.56;75.45;95386.81;5013580;28;20046;-72
2021/05/16 01:47:56;;;;;;;3.25;0.70;;;;;;;8.59;75.24;95385.34;5014094;28;20046;-72
2021/05/16 01:50:26;;;;;;;1.20;0.63;;;;;;;8.57;74.61;95385.69;5013758;28;20041;-72
2021/05/16 01:52:52;;;;;;;1.10;0.60;;;;;;;8.55;74.77;95379.78;5013670;28;20536;-72
2021/05/16 01:55:19;;;;;;;2.22;0.75;;;;;;;8.56;74.44;95375.13;5013772;28;20046;-72
2021/05/16 01:57:47;;;;;;;1.50;0.88;;;;;;;8.55;74.41;95385.19;5013481;28;20046;-72
2021/05/16 02:00:17;;;;;;;2.58;0.93;;;;;;;8.49;74.59;95381.09;5013959;28;20398;-71
2021/05/16 02:02:45;;;;;;;1.25;0.70;;;;;;;8.48;74.65;95374.06;5012887;28;20092;-71
2021/05/16 02:05:11;;;;;;;1.80;1.00;;;;;;;8.48;75.17;95374.06;5013945;28;20053;-72
2021/05/16 02:07:37;;;;;;;1.23;0.77;;;;;;;8.51;75.03;95378.84;5012840;28;20505;-71
2021/05/16 02:10:05;;;;;;;2.15;1.00;;;;;;;8.55;75.21;95379.78;5013549;28;20050;-72
2021/05/16 02:12:31;;;;;;;1.17;0.68;;;;;;;8.59;75.91;95375.28;5013759;28;20038;-71
2021/05/16 02:14:58;;;;;;;1.65;0.93;;;;;;;8.62;75.50;95380.06;5013518;28;20065;-71
2021/05/16 02:17:24;;;;;;;1.63;0.90;;;;;;;8.63;75.71;95376.22;5013080;28;20045;-71
2021/05/16 02:19:50;;;;;;;1.92;1.17;;;;;;;8.63;75.85;95381.66;5013004;28;20049;-72
2021/05/16 02:22:16;;;;;;;1.55;0.80;;;;;;;8.65;75.73;95381.31;5013443;28;20046;-72
2021/05/16 02:24:43;;;;;;;1.75;1.08;;;;;;;8.63;76.17;95378.94;5012632;28;20600;-71
2021/05/16 02:27:09;;;;;;;2.63;1.67;;;;;;;8.65;76.23;95381.31;5013474;28;20081;-71
2021/05/16 02:29:35;;;;;;;3.78;1.17;;;;;;;8.65;76.14;95378.59;5012826;28;20126;-71
2021/05/16 02:32:05;;;;;;;3.72;1.50;;;;;;;8.65;76.09;95377.81;5013084;28;20058;-71
2021/05/16 02:34:31;;;;;;;1.10;0.73;;;;;;;8.66;76.36;95379.38;5013096;28;20058;-71
2021/05/16 02:36:57;;;;;;;3.58;1.30;;;;;;;8.65;76.23;95375.88;5013139;28;20092;-71
2021/05/16 02:39:23;;;;;;;2.17;0.88;;;;;;;8.66;75.61;95377.47;5013079;28;20133;-72
2021/05/16 02:41:49;;;;;;;2.83;0.93;;;;;;;8.68;75.29;95371.72;5013166;28;20046;-71
2021/05/16 02:44:15;;;;;;;0.90;0.70;;;;;;;8.64;75.55;95377.00;5012869;28;20062;-71
2021/05/16 02:46:42;;;;;;;2.05;0.98;;;;;;;8.60;75.83;95366.00;5012233;28;20046;-71
2021/05/16 02:49:08;;;;;;;2.42;1.10;;;;;;;8.60;76.05;95366.00;5012850;28;20048;-72
2021/05/16 02:51:34;;;;;;;1.75;1.00;;;;;;;8.61;75.33;95361.38;5012080;28;20582;-72
2021/05/16 02:54:00;;;;;;;1.88;1.00;;;;;;;8.58;75.43;95370.19;5013123;28;20045;-72
2021/05/16 02:56:26;;;;;;;2.53;0.77;;;;;;;8.54;75.64;95367.34;5012160;28;20638;-72
2021/05/16 02:58:52;;;;;;;1.77;0.90;;;;;;;8.50;75.36;95360.97;5013253;28;20389;-71
2021/05/16 03:01:18;;;;;;;2.10;0.85;;;;;;;8.42;74.23;95359.13;5012641;28;20044;-72
2021/05/16 03:03:44;;;;;;;2.78;1.10;;;;;;;8.42;74.50;95369.97;5012660;28;20038;-72
2021/05/16 03:06:11;;;;;;;1.52;0.70;;;;;;;8.39;74.71;95365.19;5012437;28;20072;-72
2021/05/16 03:08:38;;;;;;;5.00;1.30;;;;;;;8.41;75.16;95373.81;5011864;28;20041;-72
2021/05/16 03:11:04;;;;;;;2.90;0.70;;;;;;;8.40;74.25;95376.81;5012668;28;20057;-72
2021/05/16 03:13:30;;;;;;;2.08;1.05;;;;;;;8.35;74.20;95378.59;5010908;28;20049;-72
2021/05/16 03:15:56;;;;;;;3.50;1.35;;;;;;;8.36;74.76;95382.13;5012823;28;20042;-72
2021/05/16 03:18:22;;;;;;;1.85;0.77;;;;;;;8.36;74.82;95377.50;5011325;28;20107;-72
2021/05/16 03:20:49;;;;;;;2.53;0.70;;;;;;;8.37;74.41;95383.72;5012748;28;20042;-72
2021/05/16 03:23:16;;;;;;;1.15;0.70;;;;;;;8.37;74.83;95389.16;5011884;28;20057;-71
2021/05/16 03:25:42;;;;;;;3.67;0.77;;;;;;;8.35;75.50;95394.06;5012612;28;20041;-72
2021/05/16 03:28:08;;;;;;;1.83;0.70;;;;;;;8.35;74.99;95396.75;5011842;28;20042;-72
2021/05/16 03:30:34;;;;;;;1.35;0.82;;;;;;;8.32;75.49;95387.38;5012090;28;20046;-72
2021/05/16 03:33:00;;;;;;;2.75;0.90;;;;;;;8.31;75.95;95393.13;5012302;28;20057;-72
2021/05/16 03:35:26;;;;;;;1.77;0.77;;;;;;;8.29;75.96;95392.66;5011565;28;20678;-72
2021/05/16 03:37:52;;;;;;;1.50;0.88;;;;;;;8.28;76.25;95391.06;5012010;28;20065;-72
2021/05/16 03:40:19;;;;;;;3.72;0.90;;;;;;;8.24;76.04;95392.84;5011114;28;20046;-72
2021/05/16 03:42:45;;;;;;;2.30;0.85;;;;;;;8.22;75.83;95397.81;5012481;28;20046;-72
2021/05/16 03:45:13;;;;;;;1.85;1.00;;;;;;;8.20;76.21;95397.34;5011048;28;20050;-72
2021/05/16 03:47:39;;;;;;;1.08;0.90;;;;;;;8.17;76.50;95396.06;5011893;28;20053;-72
2021/05/16 03:50:07;;;;;;;1.63;0.88;;;;;;;8.16;76.79;95396.41;5011070;28;20046;-72
2021/05/16 03:52:33;;;;;;;3.60;1.20;;;;;;;8.14;76.94;95398.63;5011882;28;20540;-72
2021/05/16 03:54:59;;;;;;;3.00;1.20;;;;;;;8.14;76.93;95412.19;5011800;28;20072;-72
2021/05/16 03:57:27;;;;;;;3.65;1.40;;;;;;;8.15;76.63;95405.66;5011085;28;20412;-72
2021/05/16 03:59:53;;;;;;;2.15;1.20;;;;;;;8.17;77.03;95409.63;5011824;28;20050;-72
2021/05/16 04:02:19;;;;;;;2.08;1.05;;;;;;;8.22;77.08;95408.66;5010628;28;20042;-72
2021/05/16 04:04:45;;;;;;;5.05;1.10;;;;;;;8.24;77.27;95401.75;5012208;28;20042;-72
2021/05/16 04:07:11;;;;;;;1.83;0.88;;;;;;;8.31;76.94;95404.78;5010170;28;20124;-72
2021/05/16 04:09:37;;;;;;;2.60;1.05;;;;;;;8.34;76.73;95406.03;5012231;28;20046;-72
2021/05/16 04:12:03;;;;;;;2.97;0.85;;;;;;;8.39;77.19;95408.59;5010875;28;20524;-72
2021/05/16 04:14:30;;;;;;;2.95;1.13;;;;;;;8.44;77.34;95411.13;5011388;28;20117;-72
2021/05/16 04:16:57;;;;;;;5.00;1.13;;;;;;;8.51;77.04;95408.72;5011298;28;20052;-72
2021/05/16 04:19:23;;;;;;;1.98;1.27;;;;;;;8.58;77.45;95411.69;5010894;28;20132;-72
2021/05/16 04:21:49;;;;;;;3.30;1.13;;;;;;;8.60;77.24;95404.00;5011308;28;20046;-72
2021/05/16 04:24:15;;;;;;;4.70;1.20;;;;;;;8.62;75.73;95399.06;5010466;28;20649;-73
2021/05/16 04:26:41;;;;;;;1.77;0.82;;;;;;;8.65;75.38;95402.22;5011681;28;20513;-72
2021/05/16 04:29:07;;;;;;;1.67;0.93;;;;;;;8.66;75.86;95411.97;5010307;28;20420;-74
2021/05/16 04:31:34;;;;;;;3.88;1.20;;;;;;;8.71;75.48;95414.47;5011744;28;20045;-72
2021/05/16 04:34:00;;;;;;;5.72;1.55;;;;;;;8.75;76.03;95410.78;5010664;28;20568;-72
2021/05/16 04:36:26;;;;;;;3.97;1.15;;;;;;;8.83;75.87;95417.31;5011491;28;20042;-72
2021/05/16 04:38:52;;;;;;;1.58;0.88;;;;;;;8.88;75.71;95414.41;5011256;28;20057;-72
2021/05/16 04:41:19;;;;;;;3.75;1.30;;;;;;;8.92;75.82;95420.72;5010900;28;20045;-72
2021/05/16 04:43:45;;;;;;;3.03;1.00;;;;;;;8.97;76.24;95412.38;5011070;28;20053;-72
2021/05/16 04:46:11;;;;;;;3.65;1.27;;;;;;;9.02;75.72;95420.34;5010319;28;20046;-72
2021/05/16 04:48:38;;;;;;;2.42;0.80;;;;;;;9.03;75.46;95413.81;5011141;28;20070;-72
2021/05/16 04:51:05;;;;;;;1.35;0.98;;;;;;;9.04;75.18;95412.69;5011162;28;20512;-72
2021/05/16 04:53:33;;;;;;;2.08;0.95;;;;;;;9.09;75.22;95406.25;5011306;28;20498;-73
2021/05/16 04:56:00;;;;;;;2.85;1.17;;;;;;;9.12;75.01;95406.38;5010401;28;20046;-72
2021/05/16 04:58:26;;;;;;;1.83;0.98;;;;;;;9.17;75.20;95404.59;5011335;28;20045;-72
2021/05/16 05:00:52;;;;;;;2.28;1.20;;;;;;;9.20;75.14;95403.94;5010366;28;20497;-72
2021/05/16 05:03:20;;;;;;;4.30;1.67;;;;;;;9.22;75.45;95396.25;5010845;28;20049;-72
2021/05/16 05:05:47;;;;;;;5.90;1.13;;;;;;;9.25;75.10;95395.59;5010726;28;20049;-72
2021/05/16 05:08:13;;;;;;;3.47;1.20;;;;;;;9.28;75.58;95400.34;5010557;28;20057;-72
2021/05/16 05:10:39;;;;;;;5.38;1.30;;;;;;;9.31;75.34;95400.47;5011346;28;20129;-72
2021/05/16 05:13:05;;;;;;;3.85;1.38;;;;;;;9.35;74.74;95403.34;5009845;28;20740;-72
2021/05/16 05:15:31;;;;;;;2.92;1.15;;;;;;;9.40;74.39;95409.34;5011055;28;20053;-72
2021/05/16 05:17:57;;;;;;;2.80;1.00;;;;;;;9.47;74.62;95406.09;5010110;28;20500;-72
2021/05/16 05:20:24;;;;;;;2.00;0.57;;;;;;;9.50;74.03;95408.16;5010692;28;20072;-72
2021/05/16 05:22:51;;;;;;;2.22;0.65;;;;;;;9.55;74.17;95405.22;5010382;28;20401;-72
2021/05/16 05:25:17;;;;;;;1.15;0.60;;;;;;;9.62;72.92;95404.69;5010801;28;20119;-72
2021/05/16 05:27:43;;;;;;;0.93;0.63;;;;;;;9.65;73.17;95407.50;5010279;28;20034;-73
2021/05/16 05:30:11;;;;;;;2.97;0.90;;;;;;;9.73;73.11;95405.06;5010217;28;20548;-72
2021/05/16 05:32:37;;;;;;;1.45;0.80;;;;;;;9.78;71.45;95407.56;5010289;28;20444;-73
2021/05/16 05:35:04;;;;;;;2.97;1.05;;;;;;;9.83;72.48;95404.63;5009957;28;20053;-72
2021/05/16 05:37:30;;;;;;;2.80;0.75;;;;;;;9.86;72.61;95403.94;5013037;28;20088;-72
2021/05/16 05:39:57;;;;;;;5.47;1.00;;;;;;;9.91;72.12;95398.28;5013993;28;20049;-72
2021/05/16 05:42:23;;;;;;;2.50;1.02;;;;;;;9.95;71.99;95404.66;5014230;28;20042;-72
2021/05/16 05:44:49;;;;;;;3.97;1.30;;;;;;;10.00;72.68;95403.63;5013643;28;20038;-72
2021/05/16 05:47:16;;;;;;;3.33;1.00;;;;;;;10.06;73.05;95402.28;5014080;28;20416;-72
2021/05/16 05:49:42;;;;;;;1.98;0.75;;;;;;;10.12;72.32;95398.22;5013406;28;20033;-72
2021/05/16 05:52:08;;;;;;;1.83;0.77;;;;;;;10.14;72.16;95399.47;5014173;28;20408;-72
2021/05/16 05:54:35;;;;;;;1.67;0.82;;;;;;;10.18;72.27;95399.59;5013927;28;20048;-72
2021/05/16 05:57:02;;;;;;;4.22;1.48;;;;;;;10.19;71.54;95396.53;5013999;28;20687;-73
2021/05/16 05:59:28;;;;;;;2.28;1.00;;;;;;;10.22;71.62;95396.97;5013518;28;20049;-72
2021/05/16 06:01:53;;;;;;;2.85;1.45;;;;;;;10.26;71.81;95396.00;5013490;28;20045;-73
2021/05/16 06:04:19;;;;;;;3.40;1.25;;;;;;;10.29;71.70;95405.44;5013487;28;20049;-73
2021/05/16 06:06:45;;;;;;;4.65;1.40;;;;;;;10.29;70.58;95406.22;5012995;28;20096;-72
2021/05/16 06:09:11;;;;;;;3.45;1.55;;;;;;;10.29;70.53;95408.94;5013983;28;20058;-72
2021/05/16 06:11:37;;;;;;;2.65;1.25;;;;;;;10.26;70.48;95400.66;5013167;28;20068;-72
2021/05/16 06:14:04;;;;;;;4.25;1.33;;;;;;;10.24;70.75;95402.94;5013465;28;20046;-72
2021/05/16 06:16:30;;;;;;;3.97;1.10;;;;;;;10.08;70.87;95400.84;5013130;28;20042;-72
2021/05/16 06:18:57;;;;;;;4.78;1.52;;;;;;;10.02;71.73;95399.44;5013725;28;20096;-72
2021/05/16 06:21:23;;;;;;;3.25;1.35;;;;;;;10.02;72.73;95406.81;5012991;28;20410;-72
2021/05/16 06:24:01;;;;;;;4.70;1.58;;;;;;;10.01;72.35;95408.72;5013555;28;20507;-72
2021/05/16 06:26:27;;;;;;;3.13;1.23;;;;;;;10.00;72.13;95407.16;5013370;28;20053;-72
2021/05/16 06:28:53;;;;;;;2.53;1.58;;;;;;;9.93;71.97;95407.72;5012899;28;20297;-72
2021/05/16 06:31:20;;;;;;;2.83;1.13;;;;;;;9.87;72.44;95413.72;5013696;28;20053;-73
2021/05/16 06:33:46;;;;;;;3.78;1.50;;;;;;;9.87;72.76;95403.63;5012613;28;20049;-72
2021/05/16 06:36:12;;;;;;;2.03;1.00;;;;;;;9.91;72.76;95406.44;5013504;28;20049;-72
2021/05/16 06:38:38;;;;;;;3.42;1.20;;;;;;;9.87;72.58;95411.00;5011918;28;20099;-72
2021/05/16 06:41:04;;;;;;;3.92;1.33;;;;;;;9.84;73.15;95398.06;5013025;28;20052;-72
2021/05/16 06:43:30;;;;;;;7.20;1.30;;;;;;;9.88;73.48;95401.69;5012691;28;20134;-72
2021/05/16 06:45:56;;;;;;;10.77;2.03;;;;;;;9.95;73.83;95401.94;5013188;28;20413;-72
2021/05/16 06:48:23;;;;;;;3.55;1.20;;;;;;;10.04;73.11;95399.91;5012389;28;20073;-71
2021/05/16 06:50:49;;;;;;;3.97;1.50;;;;;;;10.13;73.10;95403.34;5012601;28;20046;-71
2021/05/16 06:53:15;;;;;;;3.08;1.00;;;;;;;10.24;72.50;95402.94;5012281;28;20108;-71
2021/05/16 06:55:41;;;;;;;10.00;4.05;;;;;;;10.44;72.46;95419.16;5012038;28;20042;-71
2021/05/16 06:58:07;;;;;;;4.20;1.40;;;;;;;10.65;72.81;95402.72;5012640;28;20144;-72
2021/05/16 07:00:32;;;;;;;2.92;1.35;;;;;;;10.89;73.29;95409.25;5011930;28;20619;-72
2021/05/16 07:02:58;;;;;;;3.60;1.00;;;;;;;11.08;70.80;95404.00;5013115;28;20074;-72
2021/05/16 07:05:25;;;;;;;2.45;0.90;;;;;;;11.21;68.47;95411.00;5011804;28;20592;-71
2021/05/16 07:07:51;;;;;;;4.07;1.73;;;;;;;11.35;70.60;95407.09;5012396;28;20069;-72
2021/05/16 07:10:17;;;;;;;3.33;1.02;;;;;;;11.48;69.23;95408.63;5011850;28;20496;-72
2021/05/16 07:12:43;;;;;;;6.15;1.63;;;;;;;11.53;67.41;95402.16;5012306;28;20046;-72
2021/05/16 07:15:13;;;;;;;6.72;1.33;;;;;;;11.58;67.34;95408.16;5011955;28;20048;-71
2021/05/16 07:17:39;;;;;;;6.45;1.85;;;;;;;11.68;68.23;95404.91;5011861;28;20069;-72
2021/05/16 07:20:06;;;;;;;5.47;1.23;;;;;;;11.70;67.99;95401.88;5012125;28;20050;-72
2021/05/16 07:22:33;;;;;;;6.82;1.83;;;;;;;11.82;68.43;95406.50;5011216;28;20544;-72
2021/05/16 07:24:59;;;;;;;3.95;1.50;;;;;;;11.87;66.85;95400.78;5011339;28;20390;-72
2021/05/16 07:27:26;;;;;;;4.38;1.50;;;;;;;11.90;66.58;95397.34;5011007;28;20080;-72
2021/05/16 07:29:52;;;;;;;3.80;1.20;;;;;;;11.99;66.81;95392.53;5012321;28;20045;-72
2021/05/16 07:32:18;;;;;;;4.20;1.45;;;;;;;12.08;64.44;95390.44;5011072;28;20069;-72
2021/05/16 07:34:43;;;;;;;3.60;1.38;;;;;;;12.21;66.25;95393.84;5011992;28;20053;-72
2021/05/16 07:37:09;;;;;;;3.90;1.00;;;;;;;12.42;65.28;95388.13;5010934;28;20107;-72
2021/05/16 07:39:36;;;;;;;5.25;1.50;;;;;;;12.60;64.32;95389.38;5011895;28;20428;-72
2021/05/16 07:42:02;;;;;;;4.78;1.30;;;;;;;12.76;63.39;95381.94;5011755;28;20046;-72
2021/05/16 07:44:28;;;;;;;3.95;1.52;;;;;;;12.86;62.24;95386.06;5011635;28;20046;-72
2021/05/16 07:46:54;;;;;;;4.80;1.23;;;;;;;12.91;62.62;95372.13;5012052;28;20053;-72
2021/05/16 07:49:21;;;;;;;4.13;1.10;;;;;;;13.01;63.04;95384.44;5011003;28;20057;-72
2021/05/16 07:51:47;;;;;;;5.18;1.58;;;;;;;13.18;64.02;95375.84;5012247;28;20049;-72
2021/05/16 07:54:13;;;;;;;5.07;1.20;;;;;;;13.43;63.26;95375.59;5010878;28;20409;-72
2021/05/16 07:56:40;;;;;;;2.38;1.27;;;;;;;14.09;62.10;95378.03;5010971;28;20057;-72
2021/05/16 07:59:06;;;;;;;3.38;1.00;;;;;;;15.04;55.70;95373.69;5010220;28;20055;-72
2021/05/16 08:01:32;;;;;;;5.70;1.20;;;;;;;16.03;54.25;95371.41;5011539;28;20066;-72
2021/05/16 08:03:58;;;;;;;5.15;1.27;;;;;;;16.11;51.89;95380.50;5011320;28;20401;-72
2021/05/16 08:06:25;;;;;;;3.20;1.63;;;;;;;15.81;51.73;95377.81;5010938;28;20042;-72
2021/05/16 08:08:51;;;;;;;4.13;1.00;;;;;;;15.20;55.02;95377.06;5011263;28;20050;-72
2021/05/16 08:11:17;;;;;;;3.92;1.40;;;;;;;14.97;54.73;95370.84;5010241;28;20049;-72
2021/05/16 08:13:44;;;;;;;3.63;1.20;;;;;;;15.16;55.50;95376.22;5011732;28;20046;-73
2021/05/16 08:16:10;;;;;;;4.72;1.65;;;;;;;15.08;55.07;95371.78;5009681;28;20045;-73
2021/05/16 08:18:36;;;;;;;4.55;1.27;;;;;;;14.81;54.07;95377.28;5011469;28;20416;-73
2021/05/16 08:21:02;;;;;;;4.82;1.25;;;;;;;14.47;56.09;95367.31;5010127;28;20133;-73
2021/05/16 08:23:28;;;;;;;3.47;1.42;;;;;;;14.41;57.12;95371.50;5011302;28;20501;-72
2021/05/16 08:25:54;;;;;;;5.43;1.63;;;;;;;14.30;56.93;95380.38;5010671;28;20069;-73
2021/05/16 08:28:20;;;;;;;8.02;1.65;;;;;;;14.29;55.77;95373.28;5010443;28;20038;-73
2021/05/16 08:30:47;;;;;;;5.40;1.50;;;;;;;14.27;54.78;95375.59;5010953;28;20408;-72
2021/05/16 08:33:13;;;;;;;5.30;1.58;;;;;;;14.10;55.99;95382.34;5010490;28;20050;-72
2021/05/16 08:35:39;;;;;;;4.30;1.30;;;;;;;14.35;54.73;95369.09;5011442;28;20042;-72
2021/05/16 08:38:05;;;;;;;8.07;1.60;;;;;;;14.77;55.13;95370.97;5010012;28;20524;-73
2021/05/16 08:40:31;;;;;;;6.35;1.55;;;;;;;15.15;54.46;95369.16;5011619;28;20049;-73
2021/05/16 08:43:02;;;;;;;6.05;1.58;;;;;;;15.14;53.64;95376.59;5010428;28;20658;-73
2021/05/16 08:45:29;;;;;;;6.65;1.42;;;;;;;14.79;53.16;95374.13;5011169;28;20042;-73
2021/05/16 08:47:56;;;;;;;3.95;1.00;;;;;;;14.66;55.67;95369.19;5010031;28;20054;-73
2021/05/16 08:50:23;;;;;;;5.72;2.00;;;;;;;14.69;54.57;95374.75;5010594;28;20049;-73
2021/05/16 08:52:49;;;;;;;4.40;1.15;;;;;;;14.67;56.02;95374.34;5010817;28;20046;-73
2021/05/16 08:55:16;;;;;;;5.10;1.48;;;;;;;14.55;54.27;95380.00;5010970;28;20493;-72
2021/05/16 08:57:43;;;;;;;3.55;1.35;;;;;;;14.73;55.62;95386.56;5011457;28;20045;-73
2021/05/16 09:00:13;;;;;;;4.78;2.05;;;;;;;14.72;56.90;95389.66;5009974;28;20046;-73
2021/05/16 09:03:02;;;;;;;3.53;1.10;;;;;;;15.48;51.69;95389.56;5011266;28;20456;-73
2021/05/16 09:05:31;;;;;;;2.60;0.85;;;;;;;15.77;50.07;95383.28;5010408;28;20042;-73
2021/05/16 09:08:00;;;;;;;3.78;1.58;;;;;;;15.85;49.89;95386.88;5010824;28;20096;-73
2021/05/16 09:10:27;;;;;;;2.65;0.95;;;;;;;15.65;52.58;95389.00;5010406;28;20117;-73
2021/05/16 09:13:06;;;;;;;4.57;1.60;;;;;;;15.47;52.56;95390.72;5014510;28;20401;-73
2021/05/16 09:15:32;;;;;;;5.43;1.00;;;;;;;15.24;52.25;95388.06;5014892;28;20045;-73
2021/05/16 09:17:59;;;;;;;4.07;1.20;;;;;;;14.98;52.43;95386.13;5014294;28;20042;-73
2021/05/16 09:20:25;;;;;;;5.68;1.05;;;;;;;14.89;52.56;95391.88;5014642;28;20046;-73
2021/05/16 09:22:52;;;;;;;3.05;1.10;;;;;;;14.78;53.21;95399.94;5013702;28;20037;-73
2021/05/16 09:25:21;;;;;;;4.72;1.20;;;;;;;14.99;54.22;95383.03;5014773;28;20053;-73
2021/05/16 09:27:49;;;;;;;2.50;0.90;;;;;;;14.85;51.83;95389.09;5013819;28;20038;-72
2021/05/16 09:30:33;;;;;;;6.57;1.42;;;;;;;14.76;52.35;95387.75;5014256;28;20582;-74
2021/05/16 09:33:00;;;;;;;;;;;;;;;14.69;53.49;95390.41;5014978;28;20045;-73
2021/05/16 09:35:29;;;;;;;5.22;1.60;;;;;;;14.83;54.71;95383.19;5013900;28;19928;-72
2021/05/16 09:38:04;;;;;;;2.65;0.57;;;;;;;15.21;54.35;95386.84;5014144;28;20042;-73
2021/05/16 09:40:33;;;;;;;5.22;1.13;;;;;;;15.63;51.76;95380.38;5013580;28;20038;-73
2021/05/16 09:43:14;;;;;;;4.63;1.05;;;;;;;15.64;51.30;95379.19;5014732;28;20041;-72
2021/05/16 09:45:55;;;;;;;3.67;0.77;;;;;;;15.65;50.71;95378.03;5013559;28;20037;-73
2021/05/16 09:48:33;;;;;;;6.88;1.10;;;;;;;15.60;52.60;95384.59;5013498;28;20049;-73
2021/05/16 09:51:21;;;;;;;3.63;0.90;;;;;;;15.73;50.71;95371.47;5014010;28;20056;-72
2021/05/16 09:54:03;;;;;;;3.30;1.20;;;;;;;15.69;52.32;95375.34;5013375;28;20045;-73
2021/05/16 09:56:32;;;;;;;3.03;0.80;;;;;;;15.85;53.67;95378.66;5014333;28;20095;-73
2021/05/16 09:58:59;;;;;;;3.72;1.02;;;;;;;15.90;48.89;95365.38;5013546;28;20052;-73
2021/05/16 10:01:26;;;;;;;4.72;1.00;;;;;;;15.98;50.84;95368.22;5013613;28;20715;-73
2021/05/16 10:03:53;;;;;;;3.63;1.08;;;;;;;15.98;47.98;95354.50;5013954;28;20042;-73
2021/05/16 10:06:21;;;;;;;6.40;1.77;;;;;;;15.95;49.27;95355.22;5013245;28;20501;-73
2021/05/16 10:08:48;;;;;;;5.35;1.10;;;;;;;16.12;52.85;95340.88;5013655;28;20049;-73
2021/05/16 10:11:16;;;;;;;2.05;0.93;;;;;;;16.32;55.00;95347.72;5012956;28;20050;-73
2021/05/16 10:13:47;;;;;;;2.65;0.80;;;;;;;16.74;52.16;95341.03;5014010;28;20042;-73
2021/05/16 10:16:16;;;;;;;3.60;1.30;;;;;;;17.09;54.67;95345.19;5012617;28;20054;-73
2021/05/16 10:18:45;;;;;;;2.58;1.05;;;;;;;17.28;47.90;95328.38;5014121;28;20096;-73
2021/05/16 10:21:11;;;;;;;2.80;0.95;;;;;;;17.51;50.35;95325.34;5012429;28;20053;-73
2021/05/16 10:23:39;;;;;;;4.20;1.27;;;;;;;17.55;47.30;95328.09;5013048;28;20097;-73
2021/05/16 10:26:24;;;;;;;4.65;1.30;;;;;;;17.39;47.87;95318.22;5012563;28;20054;-73
2021/05/16 10:28:58;;;;;;;3.10;1.45;;;;;;;17.21;50.09;95322.84;5013023;28;20050;-73
2021/05/16 10:31:47;;;;;;;5.07;1.50;;;;;;;17.38;46.95;95313.91;5013108;28;20053;-73
2021/05/16 10:34:50;;;;;;;4.20;1.00;;;;;;;17.28;46.90;95308.31;5012274;28;20050;-73
2021/05/16 10:37:34;;;;;;;5.10;1.83;;;;;;;17.15;46.26;95305.91;5012533;28;20049;-73
2021/05/16 10:40:03;;;;;;;4.07;1.00;;;;;;;17.05;47.27;95311.38;5013227;28;20073;-73
2021/05/16 10:42:37;;;;;;;7.28;2.00;;;;;;;17.04;45.41;95304.28;5012315;28;20060;-73
2021/05/16 10:45:12;;;;;;;2.53;1.25;;;;;;;16.80;48.07;95297.47;5013231;28;20070;-72
2021/05/16 10:47:50;;;;;;;4.80;1.55;;;;;;;16.66;46.08;95296.19;5011990;28;20484;-72
2021/05/16 10:50:33;;;;;;;3.85;1.38;;;;;;;16.84;46.41;95293.56;5012784;28;20049;-73
2021/05/16 10:53:01;;;;;;;3.88;1.40;;;;;;;17.00;45.96;95293.25;5012768;28;20412;-72
2021/05/16 10:55:29;;;;;;;5.43;1.80;;;;;;;16.89;44.90;95287.69;5012510;28;20038;-72
2021/05/16 10:57:56;;;;;;;5.05;1.58;;;;;;;16.91;46.07;95279.88;5012829;28;20038;-72
2021/05/16 11:00:29;;;;;;;7.18;1.80;;;;;;;17.09;45.95;95273.66;5011695;28;20041;-73
2021/05/16 11:03:04;;;;;;;6.47;1.25;;;;;;;17.12;46.85;95272.88;5012954;28;20412;-73
2021/05/16 11:05:57;;;;;;;5.57;1.25;;;;;;;17.13;46.93;95268.97;5011753;28;20045;-72
2021/05/16 11:09:17;;;;;;;8.07;1.90;;;;;;;17.12;47.33;95267.38;5011876;28;20111;-72
2021/05/16 11:11:55;;;;;;;2.85;1.25;;;;;;;17.21;48.29;95259.56;5012579;28;20104;-72
2021/05/16 11:14:23;;;;;;;4.22;1.55;;;;;;;17.19;47.07;95254.47;5011263;28;20128;-72
2021/05/16 11:16:55;;;;;;;5.47;1.30;;;;;;;17.38;47.41;95258.03;5012696;28;20412;-72
2021/05/16 11:19:24;;;;;;;5.15;1.20;;;;;;;17.48;41.69;95252.56;5011596;28;20056;-72
2021/05/16 11:21:50;;;;;;;7.25;1.85;;;;;;;17.67;43.35;95242.41;5012287;28;20485;-72
2021/05/16 11:24:16;;;;;;;3.78;0.98;;;;;;;17.85;43.16;95243.22;5011794;28;20045;-73
2021/05/16 11:26:43;;;;;;;5.07;1.40;;;;;;;17.92;42.36;95240.50;5012386;28;20038;-72
2021/05/16 11:29:11;;;;;;;3.78;1.25;;;;;;;18.04;39.59;95227.53;5012253;28;20116;-72
2021/05/16 11:31:37;;;;;;;4.72;1.58;;;;;;;18.00;40.47;95228.28;5011753;28;20049;-72
2021/05/16 11:34:05;;;;;;;5.85;1.55;;;;;;;18.10;42.05;95228.69;5011109;28;20042;-72
2021/05/16 11:36:33;;;;;;;5.60;1.27;;;;;;;18.18;41.14;95228.31;5011270;28;20046;-72
2021/05/16 11:39:01;;;;;;;3.05;1.00;;;;;;;18.13;39.68;95220.44;5012284;28;20048;-72
2021/05/16 11:41:32;;;;;;;6.97;1.30;;;;;;;17.94;37.11;95218.84;5011074;28;20042;-72